Terminal Aerodrome Forecast
Issued by NWS Grand Forks, ND

Home | Current Version | Previous Version | Graphics & Text | Print | Product List | Glossary On
Versions: 1 2 3 4 5 6 7 8 9 10 11 12 13 14 15 16 17 18 19
672
FTUS43 KFGF 192325
TAFFAR
TAF
KFAR 192325Z 2000/2024 01012KT P6SM OVC040
      TEMPO 2001/2003 4SM -SN OVC040
     FM200300 01011KT 2SM -SN OVC035
     FM200600 01011KT 1SM -SN OVC025
     FM201600 34012KT P6SM OVC015
     FM202300 30009KT P6SM BKN035=

USA.gov is the U.S. government's official web portal to all federal, state and local government web resources and services.